Time;durP1;ratioP1;P1;durP2;ratioP2;P2;SDS_P1;SDS_P2;PMS_P1;PMS_P2;Temp;Humidity;BMP_temperature;BMP_pressure;BME280_temperature;BME280_humidity;BME280_pressure;Samples;Min_cycle;Max_cycle;Signal;HPM_P1;HPM_P2
2023/03/02 00:00:33;;;;;;;1.80;1.70;;;0.70;98.20;;;;;;5061270;28;20485;-73
2023/03/02 00:03:00;;;;;;;1.60;1.50;;;0.70;98.20;;;;;;5039656;28;20493;-73
2023/03/02 00:05:28;;;;;;;1.70;1.60;;;0.60;98.20;;;;;;5060406;28;20658;-73
2023/03/02 00:07:57;;;;;;;1.70;1.60;;;0.60;98.20;;;;;;5036275;28;20490;-73
2023/03/02 00:10:25;;;;;;;1.83;1.73;;;0.60;98.20;;;;;;5060868;28;20488;-73
2023/03/02 00:12:53;;;;;;;1.77;1.67;;;0.50;98.20;;;;;;5037634;28;20506;-73
2023/03/02 00:15:20;;;;;;;1.70;1.60;;;0.50;98.20;;;;;;5059602;28;20458;-73
2023/03/02 00:17:47;;;;;;;1.70;1.60;;;0.50;98.20;;;;;;5042078;28;21077;-74
2023/03/02 00:20:14;;;;;;;1.80;1.70;;;0.50;98.20;;;;;;5060109;28;20481;-73
2023/03/02 00:22:42;;;;;;;1.70;1.60;;;0.50;98.20;;;;;;5040885;28;20481;-73
2023/03/02 00:25:10;;;;;;;1.70;1.60;;;0.50;98.20;;;;;;5055534;28;20587;-73
2023/03/02 00:27:37;;;;;;;1.90;1.80;;;0.50;98.20;;;;;;5041636;28;20485;-73
2023/03/02 00:30:06;;;;;;;1.70;1.60;;;0.50;98.20;;;;;;5058275;28;20489;-73
2023/03/02 00:32:34;;;;;;;1.70;1.60;;;0.50;98.20;;;;;;5039052;28;20510;-73
2023/03/02 00:35:01;;;;;;;1.70;1.60;;;0.50;98.20;;;;;;5059164;28;20458;-73
2023/03/02 00:37:27;;;;;;;1.80;1.70;;;0.50;98.20;;;;;;5041123;28;21231;-73
2023/03/02 00:39:54;;;;;;;1.70;1.60;;;0.40;98.20;;;;;;5055832;28;20477;-73
2023/03/02 00:42:22;;;;;;;1.70;1.60;;;0.40;98.20;;;;;;5043103;28;20481;-73
2023/03/02 00:44:48;;;;;;;1.70;1.60;;;0.30;98.20;;;;;;5057593;28;20515;-73
2023/03/02 00:47:16;;;;;;;1.70;1.60;;;0.30;98.20;;;;;;5044222;28;20485;-73
2023/03/02 00:49:47;;;;;;;1.80;1.70;;;0.30;98.20;;;;;;5056022;28;20478;-74
2023/03/02 00:52:14;;;;;;;1.80;1.70;;;0.30;98.20;;;;;;5040259;28;20560;-73
2023/03/02 00:54:41;;;;;;;1.80;1.70;;;0.20;98.20;;;;;;5056850;28;20453;-73
2023/03/02 00:57:08;;;;;;;1.70;1.60;;;0.20;98.20;;;;;;5040559;28;20529;-73
2023/03/02 00:59:37;;;;;;;1.70;1.60;;;0.20;98.20;;;;;;5055720;28;20484;-73
2023/03/02 01:02:04;;;;;;;1.70;1.60;;;0.20;98.20;;;;;;5044191;28;21167;-73
2023/03/02 01:04:34;;;;;;;1.70;1.60;;;0.20;98.20;;;;;;5057548;28;20467;-73
2023/03/02 01:07:03;;;;;;;1.70;1.60;;;0.20;98.20;;;;;;5037238;28;21196;-73
2023/03/02 01:09:30;;;;;;;1.90;1.80;;;0.20;98.20;;;;;;5056772;28;20489;-73
2023/03/02 01:11:57;;;;;;;1.70;1.60;;;0.20;98.20;;;;;;5039368;28;20474;-73
2023/03/02 01:14:25;;;;;;;1.80;1.70;;;0.20;98.20;;;;;;5057463;28;20469;-73
2023/03/02 01:16:51;;;;;;;1.80;1.70;;;0.20;98.20;;;;;;5038553;28;21050;-74
2023/03/02 01:19:18;;;;;;;1.70;1.60;;;0.20;98.20;;;;;;5059701;28;20477;-73
2023/03/02 01:21:46;;;;;;;1.70;1.60;;;0.30;98.20;;;;;;5041610;28;21792;-74
2023/03/02 01:24:13;;;;;;;1.83;1.73;;;0.30;98.20;;;;;;5058946;28;20461;-73
2023/03/02 01:26:40;;;;;;;1.70;1.60;;;0.30;98.20;;;;;;5041520;28;20482;-73
2023/03/02 01:29:06;;;;;;;2.00;1.90;;;0.30;98.20;;;;;;5060092;28;20496;-73
2023/03/02 01:31:33;;;;;;;1.70;1.60;;;0.30;98.20;;;;;;5043392;28;20474;-73
2023/03/02 01:34:00;;;;;;;1.80;1.70;;;0.30;98.20;;;;;;5058152;28;20454;-73
2023/03/02 01:36:26;;;;;;;1.70;1.60;;;0.30;98.20;;;;;;5043248;28;20914;-74
2023/03/02 01:38:55;;;;;;;1.90;1.80;;;0.20;98.20;;;;;;5058004;28;20493;-73
2023/03/02 01:41:21;;;;;;;1.70;1.60;;;0.20;98.20;;;;;;5047390;28;20838;-73
2023/03/02 01:43:48;;;;;;;1.70;1.60;;;0.20;98.20;;;;;;5057079;28;20497;-73
2023/03/02 01:46:17;;;;;;;1.80;1.70;;;0.20;98.20;;;;;;5045003;28;20493;-76
2023/03/02 01:48:48;;;;;;;1.90;1.80;;;0.10;98.20;;;;;;5054347;28;20489;-76
2023/03/02 01:51:20;;;;;;;1.70;1.60;;;0.10;98.20;;;;;;5047435;28;20478;-73
2023/03/02 01:53:50;;;;;;;1.70;1.60;;;0.10;98.20;;;;;;5055037;28;20977;-73
2023/03/02 01:56:23;;;;;;;1.90;1.80;;;0.00;98.20;;;;;;5043401;28;20529;-73
2023/03/02 01:58:53;;;;;;;1.80;1.70;;;0.00;98.20;;;;;;5050925;28;20493;-73
2023/03/02 02:01:21;;;;;;;1.80;1.70;;;0.00;98.20;;;;;;5046554;28;20495;-73
2023/03/02 02:03:50;;;;;;;1.80;1.70;;;-0.10;98.20;;;;;;5054259;28;20878;-73
2023/03/02 02:06:22;;;;;;;1.80;1.70;;;-0.10;98.20;;;;;;5042577;28;20867;-73
2023/03/02 02:08:50;;;;;;;1.90;1.80;;;-0.10;98.20;;;;;;5054769;28;20946;-73
2023/03/02 02:11:18;;;;;;;1.90;1.80;;;-0.20;98.20;;;;;;5049933;28;20474;-73
2023/03/02 02:13:45;;;;;;;1.80;1.70;;;-0.20;98.20;;;;;;5060200;28;20485;-74
2023/03/02 02:16:12;;;;;;;1.80;1.70;;;-0.20;98.20;;;;;;5049198;28;21865;-73
2023/03/02 02:18:40;;;;;;;1.90;1.80;;;-0.20;98.20;;;;;;5053106;28;20928;-73
2023/03/02 02:21:08;;;;;;;1.80;1.70;;;-0.20;98.20;;;;;;5050531;28;21288;-73
2023/03/02 02:23:42;;;;;;;1.70;1.60;;;-0.20;98.20;;;;;;5046496;28;21110;-73
2023/03/02 02:26:18;;;;;;;1.80;1.70;;;-0.20;98.20;;;;;;5046781;28;20492;-73
2023/03/02 02:28:56;;;;;;;1.90;1.80;;;-0.30;98.20;;;;;;5059433;28;20492;-74
2023/03/02 02:31:28;;;;;;;1.80;1.70;;;-0.30;98.20;;;;;;5044521;28;20974;-73
2023/03/02 02:33:59;;;;;;;1.90;1.80;;;-0.30;98.20;;;;;;5060140;28;20453;-73
2023/03/02 02:36:31;;;;;;;1.87;1.77;;;-0.30;98.20;;;;;;5049273;28;20886;-73
2023/03/02 02:39:02;;;;;;;1.87;1.77;;;-0.40;98.20;;;;;;5060373;28;20495;-73
2023/03/02 02:41:35;;;;;;;1.80;1.70;;;-0.40;98.20;;;;;;5043458;28;20620;-73
2023/03/02 02:44:02;;;;;;;1.70;1.60;;;-0.40;98.20;;;;;;5053230;28;20493;-73
2023/03/02 02:46:29;;;;;;;1.80;1.70;;;-0.40;98.20;;;;;;5048871;28;20494;-73
2023/03/02 02:48:55;;;;;;;1.90;1.80;;;-0.40;98.20;;;;;;5053410;28;20485;-74
2023/03/02 02:51:27;;;;;;;1.90;1.80;;;-0.40;98.20;;;;;;5050744;28;20952;-73
2023/03/02 02:53:57;;;;;;;1.80;1.70;;;-0.40;98.20;;;;;;5052462;28;20453;-74
2023/03/02 02:56:27;;;;;;;1.83;1.73;;;-0.40;98.20;;;;;;5049195;28;20525;-75
2023/03/02 02:58:59;;;;;;;1.93;1.83;;;-0.40;98.20;;;;;;5053062;28;20478;-74
2023/03/02 03:01:26;;;;;;;1.80;1.70;;;-0.40;98.20;;;;;;5049594;28;20486;-73
2023/03/02 03:03:55;;;;;;;1.80;1.70;;;-0.40;98.20;;;;;;5060289;28;20640;-74
2023/03/02 03:06:25;;;;;;;1.70;1.60;;;-0.40;98.20;;;;;;5049256;28;20569;-74
2023/03/02 03:08:56;;;;;;;1.83;1.73;;;-0.40;98.20;;;;;;5053779;28;20491;-74
2023/03/02 03:11:25;;;;;;;1.80;1.70;;;-0.40;98.20;;;;;;5050481;28;20505;-74
2023/03/02 03:14:01;;;;;;;1.70;1.60;;;-0.40;98.20;;;;;;5060226;28;20468;-74
2023/03/02 03:16:29;;;;;;;1.80;1.70;;;-0.40;98.20;;;;;;5048780;28;20513;-73
2023/03/02 03:18:59;;;;;;;1.90;1.80;;;-0.40;98.20;;;;;;5052766;28;20477;-74
2023/03/02 03:21:26;;;;;;;1.80;1.70;;;-0.40;98.20;;;;;;5039746;28;21010;-73
2023/03/02 03:23:53;;;;;;;1.80;1.70;;;-0.50;98.20;;;;;;5046146;28;20497;-72
2023/03/02 03:26:20;;;;;;;1.80;1.70;;;-0.50;98.20;;;;;;5049246;28;20640;-73
2023/03/02 03:28:47;;;;;;;1.80;1.70;;;-0.50;98.20;;;;;;5059194;28;20533;-75
2023/03/02 03:31:15;;;;;;;1.80;1.70;;;-0.50;98.20;;;;;;5045435;28;20908;-74
2023/03/02 03:33:42;;;;;;;1.80;1.70;;;-0.50;98.20;;;;;;5052155;28;20462;-74
2023/03/02 03:36:08;;;;;;;1.80;1.70;;;-0.50;98.20;;;;;;5049815;28;20478;-75
2023/03/02 03:38:36;;;;;;;1.70;1.60;;;-0.60;98.20;;;;;;5057721;28;20468;-74
2023/03/02 03:41:02;;;;;;;1.80;1.70;;;-0.60;98.20;;;;;;5052152;28;20465;-74
2023/03/02 03:43:29;;;;;;;1.77;1.67;;;-0.60;98.20;;;;;;5049830;28;20489;-74
2023/03/02 03:45:56;;;;;;;1.90;1.80;;;-0.60;98.20;;;;;;5051424;28;20469;-74
2023/03/02 03:48:24;;;;;;;1.80;1.70;;;-0.60;98.20;;;;;;5049970;28;20465;-74
2023/03/02 03:50:51;;;;;;;1.80;1.70;;;-0.70;98.20;;;;;;5047179;28;20472;-74
2023/03/02 03:53:17;;;;;;;1.80;1.70;;;-0.70;98.20;;;;;;5038223;28;20465;-72
2023/03/02 03:55:44;;;;;;;1.70;1.60;;;-0.70;98.20;;;;;;5060024;28;20469;-75
2023/03/02 03:58:11;;;;;;;1.80;1.70;;;-0.70;98.20;;;;;;5039559;28;20478;-73
2023/03/02 04:00:38;;;;;;;1.80;1.70;;;-0.70;98.20;;;;;;5061553;28;20576;-73
2023/03/02 04:03:04;;;;;;;1.90;1.80;;;-0.70;98.20;;;;;;5050269;28;20484;-75
2023/03/02 04:05:33;;;;;;;1.87;1.77;;;-0.70;98.20;;;;;;5063709;28;21111;-74
2023/03/02 04:08:00;;;;;;;1.80;1.70;;;-0.70;98.20;;;;;;5027872;28;20843;-73
2023/03/02 04:10:28;;;;;;;1.80;1.70;;;-0.70;98.20;;;;;;5062663;28;20485;-74
2023/03/02 04:12:55;;;;;;;2.00;1.90;;;-0.70;98.20;;;;;;5028658;28;21011;-72
2023/03/02 04:15:22;;;;;;;1.80;1.70;;;-0.70;98.20;;;;;;5064236;28;20527;-73
2023/03/02 04:17:49;;;;;;;1.73;1.63;;;-0.80;98.20;;;;;;5025117;28;20487;-74
2023/03/02 04:20:17;;;;;;;1.90;1.80;;;-0.80;98.20;;;;;;5062782;28;20852;-73
2023/03/02 04:22:48;;;;;;;1.93;1.83;;;-0.80;98.20;;;;;;5026265;28;20494;-75
2023/03/02 04:25:18;;;;;;;1.77;1.67;;;-0.80;98.20;;;;;;5058739;28;20465;-75
2023/03/02 04:27:45;;;;;;;1.70;1.60;;;-0.90;98.20;;;;;;5026819;28;20486;-75
2023/03/02 04:30:14;;;;;;;1.80;1.70;;;-0.80;98.20;;;;;;5063236;28;20485;-71
2023/03/02 04:32:42;;;;;;;1.87;1.77;;;-0.80;98.20;;;;;;5051369;28;20477;-74
2023/03/02 04:35:10;;;;;;;1.80;1.70;;;-0.80;98.20;;;;;;5063761;28;20518;-73
2023/03/02 04:37:36;;;;;;;1.80;1.70;;;-0.80;98.20;;;;;;5025473;28;20486;-72
2023/03/02 04:40:06;;;;;;;1.80;1.70;;;-0.80;98.20;;;;;;5060581;28;21139;-74
2023/03/02 04:42:32;;;;;;;2.00;1.90;;;-0.80;98.20;;;;;;5030175;28;20475;-74
2023/03/02 04:44:59;;;;;;;1.93;1.83;;;-0.80;98.20;;;;;;5060477;28;20492;-73
2023/03/02 04:47:26;;;;;;;1.80;1.70;;;-0.80;98.20;;;;;;5028101;28;20495;-74
2023/03/02 04:49:55;;;;;;;1.70;1.60;;;-0.80;98.20;;;;;;5057149;28;20512;-74
2023/03/02 04:52:22;;;;;;;2.00;1.90;;;-0.80;98.20;;;;;;5034390;28;20545;-74
2023/03/02 04:54:49;;;;;;;1.80;1.70;;;-0.80;98.20;;;;;;5056201;28;20518;-74
2023/03/02 04:57:17;;;;;;;1.70;1.60;;;-0.80;98.20;;;;;;5034808;28;20485;-74
2023/03/02 04:59:44;;;;;;;1.90;1.80;;;-0.80;98.20;;;;;;5057093;28;21041;-76
2023/03/02 05:02:11;;;;;;;1.80;1.70;;;-0.80;98.20;;;;;;5050586;28;20489;-73
2023/03/02 05:04:39;;;;;;;1.80;1.70;;;-0.80;98.20;;;;;;5063045;28;20492;-74
2023/03/02 05:07:06;;;;;;;1.77;1.67;;;-0.80;98.20;;;;;;5033845;28;20597;-74
2023/03/02 05:09:32;;;;;;;1.80;1.70;;;-0.80;98.20;;;;;;5054051;28;20481;-76
2023/03/02 05:12:00;;;;;;;1.90;1.80;;;-0.90;98.20;;;;;;5038445;28;20589;-74
2023/03/02 05:14:30;;;;;;;1.80;1.70;;;-0.90;98.20;;;;;;5051214;28;20461;-74
2023/03/02 05:16:57;;;;;;;1.90;1.80;;;-0.90;98.20;;;;;;5036631;28;20489;-75
2023/03/02 05:19:24;;;;;;;1.80;1.70;;;-0.90;98.20;;;;;;5050329;28;21076;-78
2023/03/02 05:21:51;;;;;;;1.80;1.70;;;-0.90;98.20;;;;;;5038993;28;20538;-75
2023/03/02 05:24:17;;;;;;;1.80;1.70;;;-0.80;98.20;;;;;;5053899;28;20485;-75
2023/03/02 05:26:44;;;;;;;1.73;1.63;;;-0.80;98.20;;;;;;5039857;28;20606;-74
2023/03/02 05:29:11;;;;;;;1.80;1.70;;;-0.80;98.20;;;;;;5051298;28;20485;-72
2023/03/02 05:31:41;;;;;;;1.70;1.60;;;-0.90;98.20;;;;;;5038790;28;21084;-73
2023/03/02 05:34:11;;;;;;;1.90;1.80;;;-0.90;98.20;;;;;;5050372;28;21133;-73
2023/03/02 05:36:38;;;;;;;1.90;1.80;;;-0.90;98.20;;;;;;5037315;28;20498;-74
2023/03/02 05:39:05;;;;;;;1.80;1.70;;;-0.80;98.20;;;;;;5047235;28;20512;-73
2023/03/02 05:41:32;;;;;;;1.80;1.70;;;-0.80;98.20;;;;;;5051125;28;20485;-73
2023/03/02 05:43:59;;;;;;;1.80;1.70;;;-0.70;98.20;;;;;;5060612;28;20486;-74
2023/03/02 05:46:26;;;;;;;1.70;1.60;;;-0.70;98.20;;;;;;5051574;28;20869;-73
2023/03/02 05:48:54;;;;;;;1.90;1.80;;;-0.70;98.20;;;;;;5055392;28;20488;-73
2023/03/02 05:51:21;;;;;;;2.00;1.90;;;-0.70;98.20;;;;;;5050183;28;20485;-73
2023/03/02 05:53:47;;;;;;;1.70;1.60;;;-0.70;98.20;;;;;;5046807;28;20463;-73
2023/03/02 05:56:14;;;;;;;1.80;1.70;;;-0.60;98.20;;;;;;5049192;28;20505;-73
2023/03/02 05:58:41;;;;;;;1.70;1.60;;;-0.60;98.20;;;;;;5046394;28;20485;-74
2023/03/02 06:01:09;;;;;;;1.87;1.77;;;-0.60;98.20;;;;;;5051964;28;20485;-72
2023/03/02 06:03:36;;;;;;;1.90;1.80;;;-0.60;98.20;;;;;;5043866;28;20542;-73
2023/03/02 06:06:05;;;;;;;1.80;1.70;;;-0.70;98.20;;;;;;5053372;28;20461;-73
2023/03/02 06:08:31;;;;;;;1.80;1.70;;;-0.70;98.20;;;;;;5063538;28;20468;-72
2023/03/02 06:10:58;;;;;;;1.70;1.60;;;-0.70;98.20;;;;;;5054641;28;20468;-75
2023/03/02 06:13:25;;;;;;;2.03;1.93;;;-0.80;98.20;;;;;;5036750;28;20466;-77
2023/03/02 06:15:52;;;;;;;1.80;1.70;;;-0.80;98.20;;;;;;5050062;28;20534;-76
2023/03/02 06:18:19;;;;;;;1.80;1.70;;;-0.80;98.20;;;;;;5032672;28;20553;-76
2023/03/02 06:20:46;;;;;;;2.00;1.90;;;-0.90;98.20;;;;;;5055817;28;20569;-76
2023/03/02 06:23:14;;;;;;;1.80;1.70;;;-0.90;98.20;;;;;;5035871;28;20946;-74
2023/03/02 06:25:47;;;;;;;1.90;1.80;;;-0.90;98.20;;;;;;5060007;28;20512;-77
2023/03/02 06:28:14;;;;;;;2.07;1.97;;;-0.90;98.20;;;;;;5032873;28;20488;-74
2023/03/02 06:30:41;;;;;;;1.70;1.60;;;-1.00;98.20;;;;;;5061328;28;20499;-72
2023/03/02 06:33:08;;;;;;;1.80;1.70;;;-1.00;98.20;;;;;;5023996;28;20523;-73
2023/03/02 06:35:34;;;;;;;1.90;1.80;;;-1.00;98.20;;;;;;5054449;28;20956;-72
2023/03/02 06:38:01;;;;;;;1.80;1.70;;;-0.90;98.20;;;;;;5041636;28;20485;-72
2023/03/02 06:40:30;;;;;;;1.80;1.70;;;-1.00;98.20;;;;;;5057870;28;20493;-72
2023/03/02 06:42:59;;;;;;;1.80;1.70;;;-0.90;98.20;;;;;;5029494;28;20486;-73
2023/03/02 06:45:26;;;;;;;1.83;1.73;;;-1.00;98.20;;;;;;5057800;28;20580;-72
2023/03/02 06:47:53;;;;;;;1.70;1.60;;;-0.90;98.20;;;;;;5022392;28;21098;-74
2023/03/02 06:50:20;;;;;;;1.80;1.70;;;-0.90;98.20;;;;;;5061215;28;20493;-75
2023/03/02 06:52:47;;;;;;;1.80;1.70;;;-0.90;98.20;;;;;;5037928;28;20493;-74
2023/03/02 06:55:14;;;;;;;1.80;1.70;;;-0.90;98.20;;;;;;5058534;28;20876;-74
2023/03/02 06:57:42;;;;;;;1.80;1.70;;;-0.80;98.20;;;;;;5023640;28;20509;-74
2023/03/02 07:00:16;;;;;;;1.80;1.70;;;-0.70;98.20;;;;;;5057564;28;20530;-76
2023/03/02 07:02:43;;;;;;;1.80;1.70;;;-0.60;98.20;;;;;;5025419;28;20548;-72
2023/03/02 07:05:10;;;;;;;1.87;1.77;;;-0.40;98.20;;;;;;5057275;28;21084;-74
2023/03/02 07:07:37;;;;;;;1.80;1.70;;;-0.20;98.20;;;;;;5036863;28;20500;-72
2023/03/02 07:10:05;;;;;;;1.80;1.70;;;-0.10;98.20;;;;;;5054914;28;20581;-72
2023/03/02 07:12:32;;;;;;;1.70;1.60;;;0.10;98.20;;;;;;5025112;28;20624;-73
2023/03/02 07:15:00;;;;;;;1.60;1.50;;;0.30;98.20;;;;;;5055692;28;20572;-73
2023/03/02 07:17:27;;;;;;;1.70;1.60;;;0.50;98.20;;;;;;5024441;28;20493;-72
2023/03/02 07:19:54;;;;;;;1.70;1.60;;;0.70;98.20;;;;;;5051406;28;20853;-73
2023/03/02 07:22:21;;;;;;;1.70;1.60;;;0.90;98.20;;;;;;5029453;28;20483;-75
2023/03/02 07:24:47;;;;;;;1.70;1.60;;;1.00;98.20;;;;;;5050603;28;20488;-73
2023/03/02 07:27:14;;;;;;;1.70;1.60;;;1.20;98.20;;;;;;5024440;28;20567;-72
2023/03/02 07:29:41;;;;;;;1.70;1.60;;;1.40;98.20;;;;;;5049467;28;20980;-72
2023/03/02 07:32:09;;;;;;;1.70;1.60;;;1.60;98.20;;;;;;5032316;28;20545;-73
2023/03/02 07:34:36;;;;;;;1.60;1.50;;;1.70;98.20;;;;;;5051141;28;20457;-73
2023/03/02 07:37:03;;;;;;;1.60;1.50;;;1.90;98.20;;;;;;5028836;28;20505;-72
2023/03/02 07:39:30;;;;;;;1.70;1.60;;;2.10;98.20;;;;;;5051615;28;20485;-72
2023/03/02 07:41:58;;;;;;;1.60;1.50;;;2.20;98.20;;;;;;5034458;28;20489;-72
2023/03/02 07:44:25;;;;;;;1.60;1.50;;;2.40;98.20;;;;;;5046468;28;20613;-73
2023/03/02 07:46:52;;;;;;;1.60;1.50;;;2.60;98.20;;;;;;5030850;28;20490;-72
2023/03/02 07:49:20;;;;;;;1.60;1.50;;;2.80;98.20;;;;;;5046564;28;20482;-72
2023/03/02 07:51:47;;;;;;;1.60;1.43;;;2.90;98.20;;;;;;5039441;28;20493;-74
2023/03/02 07:54:14;;;;;;;1.60;1.50;;;3.00;98.10;;;;;;5053053;28;20782;-73
2023/03/02 07:56:41;;;;;;;1.60;1.50;;;3.20;97.70;;;;;;5045399;28;20485;-73
2023/03/02 07:59:07;;;;;;;1.60;1.50;;;3.30;97.20;;;;;;5053032;28;20838;-73
2023/03/02 08:01:34;;;;;;;3.30;3.10;;;3.50;96.30;;;;;;5041813;28;20482;-74
2023/03/02 08:04:01;;;;;;;1.70;1.60;;;3.60;96.60;;;;;;5051753;28;20936;-75
2023/03/02 08:06:29;;;;;;;1.60;1.40;;;3.70;95.90;;;;;;5044203;28;20497;-74
2023/03/02 08:08:59;;;;;;;1.60;1.40;;;3.90;95.50;;;;;;5051802;28;20496;-74
2023/03/02 08:11:25;;;;;;;1.60;1.50;;;4.00;94.20;;;;;;5046093;28;21020;-75
2023/03/02 08:13:52;;;;;;;1.57;1.40;;;4.10;94.40;;;;;;5055220;28;20748;-74
2023/03/02 08:16:20;;;;;;;1.57;1.40;;;4.20;93.60;;;;;;5044388;28;20535;-74
2023/03/02 08:18:47;;;;;;;1.60;1.40;;;4.30;93.80;;;;;;5053946;28;20879;-74
2023/03/02 08:21:16;;;;;;;1.60;1.40;;;4.40;91.90;;;;;;5046573;28;20503;-74
2023/03/02 08:23:45;;;;;;;1.60;1.40;;;4.50;93.00;;;;;;5057368;28;21292;-75
2023/03/02 08:26:12;;;;;;;1.57;1.40;;;4.80;92.90;;;;;;5046241;28;20813;-76
2023/03/02 08:28:39;;;;;;;1.60;1.40;;;4.90;93.10;;;;;;5058615;28;20476;-76
2023/03/02 08:31:08;;;;;;;1.60;1.30;;;5.20;91.20;;;;;;5045158;28;21057;-77
2023/03/02 08:33:35;;;;;;;1.57;1.40;;;5.40;90.30;;;;;;5034891;28;20468;-76
2023/03/02 08:36:04;;;;;;;1.50;1.30;;;5.50;90.00;;;;;;5044648;28;20464;-78
2023/03/02 08:38:31;;;;;;;1.60;1.30;;;5.60;89.80;;;;;;5057386;28;20549;-77
2023/03/02 08:41:03;;;;;;;1.50;1.30;;;5.80;89.00;;;;;;5048456;28;20559;-76
2023/03/02 08:43:30;;;;;;;1.50;1.30;;;5.90;88.40;;;;;;5056681;28;20651;-76
2023/03/02 08:45:57;;;;;;;1.50;1.30;;;5.90;86.20;;;;;;5046311;28;20913;-75
2023/03/02 08:48:25;;;;;;;1.57;1.30;;;6.00;85.90;;;;;;5036355;28;20545;-77
2023/03/02 08:50:56;;;;;;;1.57;1.30;;;6.00;86.80;;;;;;5046663;28;20862;-75
2023/03/02 08:53:23;;;;;;;1.60;1.43;;;6.20;85.20;;;;;;5038274;28;20835;-75
2023/03/02 08:55:50;;;;;;;1.60;1.50;;;6.30;86.90;;;;;;5048004;28;20457;-76
2023/03/02 08:58:19;;;;;;;1.53;1.30;;;6.50;86.00;;;;;;5035408;28;20466;-76
2023/03/02 09:00:45;;;;;;;1.57;1.37;;;6.60;83.60;;;;;;5058125;28;20488;-76
2023/03/02 09:03:12;;;;;;;1.50;1.30;;;6.80;85.00;;;;;;5047793;28;20947;-76
2023/03/02 09:05:39;;;;;;;1.53;1.20;;;6.90;83.20;;;;;;5057288;28;20496;-76
2023/03/02 09:08:06;;;;;;;1.50;1.27;;;6.90;83.50;;;;;;5023911;28;20489;-76
2023/03/02 09:10:34;;;;;;;1.90;1.80;;;7.10;83.60;;;;;;5057455;28;20480;-76
2023/03/02 09:13:01;;;;;;;1.60;1.37;;;7.30;83.50;;;;;;5025609;28;20510;-76
2023/03/02 09:15:29;;;;;;;1.53;1.27;;;7.40;82.70;;;;;;5059405;28;20450;-76
2023/03/02 09:17:57;;;;;;;1.53;1.20;;;7.50;82.60;;;;;;5022037;28;20475;-75
2023/03/02 09:20:24;;;;;;;1.50;1.20;;;7.60;82.70;;;;;;5060816;28;20490;-76
2023/03/02 09:22:50;;;;;;;1.57;1.20;;;7.80;82.40;;;;;;5028746;28;20645;-77
2023/03/02 09:25:18;;;;;;;1.53;1.30;;;7.90;81.70;;;;;;5063450;28;21037;-76
2023/03/02 09:27:45;;;;;;;1.50;1.20;;;8.00;81.60;;;;;;5028411;28;20553;-76
2023/03/02 09:30:13;;;;;;;1.57;1.20;;;8.00;81.40;;;;;;5060356;28;20489;-76
2023/03/02 09:32:42;;;;;;;1.60;1.30;;;8.20;81.10;;;;;;5046805;28;20489;-76
2023/03/02 09:35:09;;;;;;;1.53;1.20;;;8.40;80.70;;;;;;5062614;28;20466;-76
2023/03/02 09:37:37;;;;;;;1.57;1.20;;;8.60;80.50;;;;;;5027384;28;20488;-76
2023/03/02 09:40:06;;;;;;;2.27;2.07;;;8.80;79.70;;;;;;5060366;28;20500;-76
2023/03/02 09:42:49;;;;;;;1.53;1.10;;;8.80;77.90;;;;;;5029534;28;20902;-76
2023/03/02 09:45:24;;;;;;;1.53;1.20;;;9.00;79.00;;;;;;5058315;28;20485;-80
2023/03/02 09:48:04;;;;;;;1.60;1.20;;;9.20;79.40;;;;;;5028043;28;21047;-76
2023/03/02 09:50:32;;;;;;;1.57;1.20;;;9.30;77.50;;;;;;5062165;28;20560;-75
2023/03/02 09:53:23;;;;;;;1.60;1.40;;;9.50;77.20;;;;;;5027913;28;20485;-77
2023/03/02 09:55:57;;;;;;;5.00;2.33;;;9.50;76.80;;;;;;5051354;28;20460;-77
2023/03/02 09:58:29;;;;;;;1.53;1.20;;;9.60;75.60;;;;;;5055439;28;20469;-77
2023/03/02 10:00:58;;;;;;;1.57;1.10;;;9.70;75.70;;;;;;5045507;28;20468;-75
2023/03/02 10:03:31;;;;;;;1.53;1.10;;;9.70;75.50;;;;;;5041217;28;20472;-76
2023/03/02 10:05:59;;;;;;;1.50;1.10;;;9.90;76.60;;;;;;5049249;28;20481;-77
2023/03/02 10:08:28;;;;;;;1.50;1.10;;;10.20;76.80;;;;;;5040696;28;20457;-75
2023/03/02 10:11:04;;;;;;;2.07;1.87;;;10.30;75.60;;;;;;5048043;28;20457;-75
2023/03/02 10:13:39;;;;;;;1.53;1.10;;;10.40;75.70;;;;;;5042559;28;20810;-75
2023/03/02 10:16:15;;;;;;;1.50;1.10;;;10.60;75.00;;;;;;5047240;28;20541;-76
2023/03/02 10:18:48;;;;;;;1.50;1.10;;;10.80;75.00;;;;;;5038034;28;20484;-75
2023/03/02 10:21:22;;;;;;;1.93;1.73;;;10.80;73.60;;;;;;5047311;28;21276;-76
2023/03/02 10:23:56;;;;;;;1.50;1.10;;;10.80;73.90;;;;;;5060086;28;20479;-76
2023/03/02 10:26:29;;;;;;;1.60;1.10;;;10.90;74.90;;;;;;5040692;28;20971;-76
2023/03/02 10:29:01;;;;;;;1.60;1.30;;;11.10;74.30;;;;;;5046729;28;20592;-75
2023/03/02 10:31:29;;;;;;;1.50;1.10;;;11.20;72.30;;;;;;5039014;28;20549;-75
2023/03/02 10:33:58;;;;;;;1.50;1.10;;;11.20;72.80;;;;;;5045116;28;20461;-75
2023/03/02 10:36:27;;;;;;;1.60;1.30;;;11.40;73.70;;;;;;5046608;28;20493;-75
2023/03/02 10:38:56;;;;;;;1.50;1.10;;;11.60;73.80;;;;;;5050685;28;20560;-76
2023/03/02 10:41:27;;;;;;;1.50;1.00;;;11.70;72.10;;;;;;5043758;28;20482;-75
2023/03/02 10:43:59;;;;;;;1.50;1.00;;;11.90;72.70;;;;;;5045499;28;20461;-76
2023/03/02 10:46:26;;;;;;;1.50;1.00;;;11.90;70.60;;;;;;5041709;28;20532;-74
2023/03/02 10:48:55;;;;;;;1.50;1.00;;;12.00;71.00;;;;;;5040493;28;20485;-75
2023/03/02 10:51:26;;;;;;;1.50;1.10;;;12.00;71.40;;;;;;5043348;28;20970;-76
2023/03/02 10:54:06;;;;;;;1.50;1.00;;;12.00;72.30;;;;;;5043016;28;20461;-76
2023/03/02 10:56:33;;;;;;;1.50;1.00;;;12.20;71.00;;;;;;5045890;28;20480;-75
2023/03/02 10:59:02;;;;;;;1.50;1.00;;;12.30;70.90;;;;;;5056858;28;20484;-75
2023/03/02 11:01:31;;;;;;;1.50;1.10;;;12.30;71.10;;;;;;5041964;28;21064;-76
2023/03/02 11:03:59;;;;;;;1.50;1.00;;;12.50;71.30;;;;;;5049458;28;20474;-76
2023/03/02 11:06:30;;;;;;;1.50;1.00;;;12.40;68.50;;;;;;5048650;28;20940;-75
2023/03/02 11:09:01;;;;;;;1.50;1.10;;;12.40;70.60;;;;;;5056687;28;20491;-76
2023/03/02 11:11:28;;;;;;;1.50;1.00;;;12.50;70.70;;;;;;5047905;28;20485;-75
2023/03/02 11:13:56;;;;;;;1.50;1.00;;;12.70;70.00;;;;;;5055748;28;20461;-76
2023/03/02 11:16:27;;;;;;;1.50;1.00;;;12.80;70.60;;;;;;5042554;28;20509;-76
2023/03/02 11:18:58;;;;;;;1.50;1.00;;;13.00;69.80;;;;;;5040001;28;20477;-75
2023/03/02 11:21:34;;;;;;;2.17;1.97;;;13.20;70.50;;;;;;5047207;28;20489;-75
2023/03/02 11:24:09;;;;;;;1.50;1.00;;;13.30;70.10;;;;;;5054968;28;20461;-77
2023/03/02 11:26:39;;;;;;;1.50;1.00;;;13.40;68.80;;;;;;5037383;28;20494;-76
2023/03/02 11:29:13;;;;;;;1.50;1.00;;;13.50;69.60;;;;;;5042103;28;20493;-76
2023/03/02 11:31:44;;;;;;;1.50;1.00;;;13.50;68.80;;;;;;5027418;28;20495;-76
2023/03/02 11:34:28;;;;;;;1.50;1.00;;;13.60;68.50;;;;;;5044828;28;20466;-76
2023/03/02 11:37:04;;;;;;;1.50;1.00;;;13.50;68.20;;;;;;5030774;28;20483;-76
2023/03/02 11:39:52;;;;;;;1.50;1.00;;;13.50;69.00;;;;;;5048349;28;21056;-76
2023/03/02 11:42:21;;;;;;;1.50;1.00;;;13.50;67.80;;;;;;5045929;28;20485;-75
2023/03/02 11:44:49;;;;;;;1.50;1.00;;;13.50;67.30;;;;;;5056565;28;21075;-75
2023/03/02 11:47:17;;;;;;;1.50;1.10;;;13.70;68.00;;;;;;5030487;28;20828;-75
2023/03/02 11:49:49;;;;;;;1.50;1.00;;;13.70;67.30;;;;;;5046929;28;20870;-75
2023/03/02 11:52:20;;;;;;;1.50;1.00;;;13.80;68.00;;;;;;5031595;28;20485;-75
2023/03/02 11:54:52;;;;;;;1.53;1.10;;;13.80;67.00;;;;;;5048985;28;20970;-77
2023/03/02 11:57:25;;;;;;;1.50;1.00;;;13.90;66.80;;;;;;5025900;28;20483;-76
2023/03/02 11:59:53;;;;;;;1.50;1.00;;;14.00;66.60;;;;;;5046776;28;20596;-75
2023/03/02 12:02:21;;;;;;;1.50;1.00;;;13.90;65.80;;;;;;5037189;28;20568;-76
2023/03/02 12:04:49;;;;;;;1.50;0.93;;;13.70;66.90;;;;;;5048214;28;21248;-77
2023/03/02 12:07:22;;;;;;;1.50;1.00;;;13.80;67.10;;;;;;5027227;28;20519;-76
2023/03/02 12:09:58;;;;;;;1.50;1.00;;;13.90;67.20;;;;;;5047459;28;20488;-76
2023/03/02 12:12:47;;;;;;;1.50;1.00;;;14.00;66.60;;;;;;5038342;28;20816;-75
2023/03/02 12:15:36;;;;;;;1.50;1.00;;;14.00;67.10;;;;;;5052544;28;20548;-75
2023/03/02 12:18:29;;;;;;;1.50;0.90;;;14.00;67.10;;;;;;5035955;28;20484;-76
2023/03/02 12:21:02;;;;;;;1.97;1.77;;;14.10;66.20;;;;;;5040296;28;20527;-75
2023/03/02 12:23:34;;;;;;;1.50;1.00;;;13.90;66.60;;;;;;5048970;28;20457;-75
2023/03/02 12:26:06;;;;;;;1.50;1.00;;;13.90;66.40;;;;;;5044262;28;20598;-76
2023/03/02 12:28:35;;;;;;;1.50;0.90;;;13.80;66.20;;;;;;5053292;28;20553;-76
2023/03/02 12:31:08;;;;;;;1.50;1.00;;;13.90;66.50;;;;;;5041012;28;20464;-76
2023/03/02 12:33:43;;;;;;;1.50;1.00;;;13.90;66.00;;;;;;5054853;28;20952;-76
2023/03/02 12:36:18;;;;;;;1.50;1.00;;;13.90;66.20;;;;;;5038330;28;20482;-76
2023/03/02 12:39:00;;;;;;;1.50;1.00;;;13.90;65.50;;;;;;5035263;28;20481;-76
2023/03/02 12:41:59;;;;;;;1.50;1.00;;;13.90;66.50;;;;;;5039210;28;21023;-76
2023/03/02 12:44:42;;;;;;;1.50;0.90;;;13.80;65.30;;;;;;5044494;28;20457;-78
2023/03/02 12:47:20;;;;;;;1.50;1.00;;;13.80;65.80;;;;;;5043146;28;20512;-76
2023/03/02 12:49:51;;;;;;;1.50;1.10;;;13.80;65.30;;;;;;5056907;28;20577;-77
2023/03/02 12:52:26;;;;;;;1.50;1.00;;;13.70;64.80;;;;;;5039473;28;20497;-75
2023/03/02 12:55:04;;;;;;;1.47;1.00;;;13.70;65.50;;;;;;5052533;28;20463;-77
2023/03/02 12:57:32;;;;;;;1.50;1.00;;;13.70;66.20;;;;;;5044091;28;20576;-76
2023/03/02 13:00:01;;;;;;;1.50;1.00;;;13.70;65.70;;;;;;5056361;28;20579;-75